Weather at Allentown Queen City Municipal Airport

Public forecast

Using degrees Fahrenheit for public forecast. Weather courtesy of forecast.io.

Current aviation weather report (METAR) for Allentown Queen City Municipal Airport

Retrieved 2021/06/13 11:15 UTC (6 minutes ago):

KXLL 131115Z AUTO 00000KT 10SM OVC045 17/13 A2994 RMK AO2

Closest aviation forecast (TAF) to Allentown Queen City Municipal Airport

Closest forecast is Lehigh Valley International Airport, 5.3 nm (9.8 km) NNE. Retrieved 2021/06/13 06:34 UTC (5 hours ago):

TAF KABE 130531Z 1306/1406 VRB03KT P6SM OVC028 TEMPO 1309/1313 4SM -SHRA BR FM131900 19004KT P6SM BKN040 FM140100 18004KT P6SM SHRA OVC025